sensor_id;sensor_type;location;lat;lon;timestamp;temperature;humidity
24902;DHT22;31328;51.402;0.016;2023-04-09T00:00:38;8.50;99.90
24902;DHT22;31328;51.402;0.016;2023-04-09T00:03:05;8.50;99.90
24902;DHT22;31328;51.402;0.016;2023-04-09T00:05:32;8.50;99.90
24902;DHT22;31328;51.402;0.016;2023-04-09T00:07:58;8.50;99.90
24902;DHT22;31328;51.402;0.016;2023-04-09T00:10:24;8.50;99.90
24902;DHT22;31328;51.402;0.016;2023-04-09T00:12:50;8.40;99.90
24902;DHT22;31328;51.402;0.016;2023-04-09T00:15:17;8.40;99.90
24902;DHT22;31328;51.402;0.016;2023-04-09T00:17:43;8.40;99.90
24902;DHT22;31328;51.402;0.016;2023-04-09T00:20:10;8.40;99.90
24902;DHT22;31328;51.402;0.016;2023-04-09T00:22:36;8.40;99.90
24902;DHT22;31328;51.402;0.016;2023-04-09T00:25:02;8.40;99.90
24902;DHT22;31328;51.402;0.016;2023-04-09T00:27:29;8.40;99.90
24902;DHT22;31328;51.402;0.016;2023-04-09T00:29:55;8.40;99.90
24902;DHT22;31328;51.402;0.016;2023-04-09T00:32:21;8.40;99.90
24902;DHT22;31328;51.402;0.016;2023-04-09T00:34:48;8.30;99.90
24902;DHT22;31328;51.402;0.016;2023-04-09T00:37:15;8.30;99.90
24902;DHT22;31328;51.402;0.016;2023-04-09T00:39:41;8.30;99.90
24902;DHT22;31328;51.402;0.016;2023-04-09T00:42:08;8.30;99.90
24902;DHT22;31328;51.402;0.016;2023-04-09T00:44:34;8.30;99.90
24902;DHT22;31328;51.402;0.016;2023-04-09T00:47:00;8.30;99.90
24902;DHT22;31328;51.402;0.016;2023-04-09T00:49:27;8.40;99.90
24902;DHT22;31328;51.402;0.016;2023-04-09T00:51:53;8.40;99.90
24902;DHT22;31328;51.402;0.016;2023-04-09T00:54:20;8.40;99.90
24902;DHT22;31328;51.402;0.016;2023-04-09T00:56:46;8.50;99.90
24902;DHT22;31328;51.402;0.016;2023-04-09T00:59:13;8.50;99.90
24902;DHT22;31328;51.402;0.016;2023-04-09T01:01:39;8.50;99.90
24902;DHT22;31328;51.402;0.016;2023-04-09T01:04:06;8.50;99.90
24902;DHT22;31328;51.402;0.016;2023-04-09T01:06:48;8.60;99.90
24902;DHT22;31328;51.402;0.016;2023-04-09T01:09:38;8.60;99.90
24902;DHT22;31328;51.402;0.016;2023-04-09T01:12:13;8.60;99.90
24902;DHT22;31328;51.402;0.016;2023-04-09T01:14:48;8.60;99.90
24902;DHT22;31328;51.402;0.016;2023-04-09T01:17:23;8.50;99.90
24902;DHT22;31328;51.402;0.016;2023-04-09T01:20:11;8.50;99.90
24902;DHT22;31328;51.402;0.016;2023-04-09T01:22:49;8.50;99.90
24902;DHT22;31328;51.402;0.016;2023-04-09T01:30:47;8.40;99.90
24902;DHT22;31328;51.402;0.016;2023-04-09T01:33:15;8.30;99.90
24902;DHT22;31328;51.402;0.016;2023-04-09T01:35:45;8.30;99.90
24902;DHT22;31328;51.402;0.016;2023-04-09T01:38:13;8.30;99.90
24902;DHT22;31328;51.402;0.016;2023-04-09T01:40:40;8.30;99.90
24902;DHT22;31328;51.402;0.016;2023-04-09T01:43:07;8.30;99.90
24902;DHT22;31328;51.402;0.016;2023-04-09T01:45:34;8.20;99.90
24902;DHT22;31328;51.402;0.016;2023-04-09T01:48:01;8.20;99.90
24902;DHT22;31328;51.402;0.016;2023-04-09T01:50:28;8.20;99.90
24902;DHT22;31328;51.402;0.016;2023-04-09T01:52:55;8.10;99.90
24902;DHT22;31328;51.402;0.016;2023-04-09T01:55:22;8.10;99.90
24902;DHT22;31328;51.402;0.016;2023-04-09T01:57:48;8.10;99.90
24902;DHT22;31328;51.402;0.016;2023-04-09T02:00:14;8.00;99.90
24902;DHT22;31328;51.402;0.016;2023-04-09T02:02:52;8.00;99.90
24902;DHT22;31328;51.402;0.016;2023-04-09T02:05:20;8.00;99.90
24902;DHT22;31328;51.402;0.016;2023-04-09T02:07:55;8.00;99.90
24902;DHT22;31328;51.402;0.016;2023-04-09T02:10:23;8.00;99.90
24902;DHT22;31328;51.402;0.016;2023-04-09T02:12:51;7.90;99.90
24902;DHT22;31328;51.402;0.016;2023-04-09T02:15:19;7.90;99.90
24902;DHT22;31328;51.402;0.016;2023-04-09T02:17:46;7.90;99.90
24902;DHT22;31328;51.402;0.016;2023-04-09T02:20:19;7.80;99.90
24902;DHT22;31328;51.402;0.016;2023-04-09T02:22:45;7.80;99.90
24902;DHT22;31328;51.402;0.016;2023-04-09T02:25:12;7.80;99.90
24902;DHT22;31328;51.402;0.016;2023-04-09T02:27:38;7.80;99.90
24902;DHT22;31328;51.402;0.016;2023-04-09T02:30:05;7.70;99.90
24902;DHT22;31328;51.402;0.016;2023-04-09T02:32:31;7.70;99.90
24902;DHT22;31328;51.402;0.016;2023-04-09T02:34:58;7.70;99.90
24902;DHT22;31328;51.402;0.016;2023-04-09T02:37:24;7.70;99.90
24902;DHT22;31328;51.402;0.016;2023-04-09T02:39:50;7.60;99.90
24902;DHT22;31328;51.402;0.016;2023-04-09T02:42:17;7.60;99.90
24902;DHT22;31328;51.402;0.016;2023-04-09T02:44:43;7.60;99.90
24902;DHT22;31328;51.402;0.016;2023-04-09T02:47:11;7.60;99.90
24902;DHT22;31328;51.402;0.016;2023-04-09T02:49:38;7.60;99.90
24902;DHT22;31328;51.402;0.016;2023-04-09T02:52:05;7.50;99.90
24902;DHT22;31328;51.402;0.016;2023-04-09T02:54:31;7.50;99.90
24902;DHT22;31328;51.402;0.016;2023-04-09T02:56:57;7.50;99.90
24902;DHT22;31328;51.402;0.016;2023-04-09T02:59:23;7.50;99.90
24902;DHT22;31328;51.402;0.016;2023-04-09T03:01:50;7.50;99.90
24902;DHT22;31328;51.402;0.016;2023-04-09T03:04:16;7.50;99.90
24902;DHT22;31328;51.402;0.016;2023-04-09T03:06:43;7.50;99.90
24902;DHT22;31328;51.402;0.016;2023-04-09T03:09:09;7.40;99.90
24902;DHT22;31328;51.402;0.016;2023-04-09T03:11:36;7.50;99.90
24902;DHT22;31328;51.402;0.016;2023-04-09T03:14:02;7.40;99.90
24902;DHT22;31328;51.402;0.016;2023-04-09T03:16:28;7.40;99.90
24902;DHT22;31328;51.402;0.016;2023-04-09T03:18:55;7.40;99.90
24902;DHT22;31328;51.402;0.016;2023-04-09T03:25:31;7.30;99.90
24902;DHT22;31328;51.402;0.016;2023-04-09T03:28:01;7.30;99.90
24902;DHT22;31328;51.402;0.016;2023-04-09T03:30:40;7.30;99.90
24902;DHT22;31328;51.402;0.016;2023-04-09T03:33:07;7.20;99.90
24902;DHT22;31328;51.402;0.016;2023-04-09T03:35:40;7.20;99.90
24902;DHT22;31328;51.402;0.016;2023-04-09T03:38:09;7.20;99.90
24902;DHT22;31328;51.402;0.016;2023-04-09T03:40:36;7.10;99.90
24902;DHT22;31328;51.402;0.016;2023-04-09T03:43:02;7.10;99.90
24902;DHT22;31328;51.402;0.016;2023-04-09T03:45:30;7.10;99.90
24902;DHT22;31328;51.402;0.016;2023-04-09T03:48:09;7.00;99.90
24902;DHT22;31328;51.402;0.016;2023-04-09T03:50:40;7.00;99.90
24902;DHT22;31328;51.402;0.016;2023-04-09T03:53:09;7.00;99.90
24902;DHT22;31328;51.402;0.016;2023-04-09T03:55:36;7.00;99.90
24902;DHT22;31328;51.402;0.016;2023-04-09T03:58:06;7.00;99.90
24902;DHT22;31328;51.402;0.016;2023-04-09T04:00:35;6.90;99.90
24902;DHT22;31328;51.402;0.016;2023-04-09T04:03:23;6.90;99.90
24902;DHT22;31328;51.402;0.016;2023-04-09T04:06:16;6.90;99.90
24902;DHT22;31328;51.402;0.016;2023-04-09T04:08:51;6.90;99.90
24902;DHT22;31328;51.402;0.016;2023-04-09T04:11:20;6.80;99.90
24902;DHT22;31328;51.402;0.016;2023-04-09T04:13:51;6.80;99.90
24902;DHT22;31328;51.402;0.016;2023-04-09T04:16:17;6.80;99.90
24902;DHT22;31328;51.402;0.016;2023-04-09T04:18:43;6.80;99.90
24902;DHT22;31328;51.402;0.016;2023-04-09T04:21:15;6.80;99.90
24902;DHT22;31328;51.402;0.016;2023-04-09T04:23:45;6.80;99.90
24902;DHT22;31328;51.402;0.016;2023-04-09T04:26:25;6.70;99.90
24902;DHT22;31328;51.402;0.016;2023-04-09T04:28:51;6.80;99.90
24902;DHT22;31328;51.402;0.016;2023-04-09T04:31:32;6.70;99.90
24902;DHT22;31328;51.402;0.016;2023-04-09T04:33:59;6.80;99.90
24902;DHT22;31328;51.402;0.016;2023-04-09T04:36:26;6.80;99.90
24902;DHT22;31328;51.402;0.016;2023-04-09T04:38:52;6.80;99.90
24902;DHT22;31328;51.402;0.016;2023-04-09T04:41:41;6.80;99.90
24902;DHT22;31328;51.402;0.016;2023-04-09T04:44:12;6.80;99.90
24902;DHT22;31328;51.402;0.016;2023-04-09T04:46:40;6.80;99.90
24902;DHT22;31328;51.402;0.016;2023-04-09T04:49:06;6.80;99.90
24902;DHT22;31328;51.402;0.016;2023-04-09T04:51:36;6.80;99.90
24902;DHT22;31328;51.402;0.016;2023-04-09T04:54:08;6.80;99.90
24902;DHT22;31328;51.402;0.016;2023-04-09T04:56:35;6.70;99.90
24902;DHT22;31328;51.402;0.016;2023-04-09T04:59:08;6.80;99.90
24902;DHT22;31328;51.402;0.016;2023-04-09T05:01:47;6.70;99.90
24902;DHT22;31328;51.402;0.016;2023-04-09T05:04:13;6.70;99.90
24902;DHT22;31328;51.402;0.016;2023-04-09T05:06:40;6.70;99.90
24902;DHT22;31328;51.402;0.016;2023-04-09T05:09:10;6.70;99.90
24902;DHT22;31328;51.402;0.016;2023-04-09T05:11:44;6.70;99.90
24902;DHT22;31328;51.402;0.016;2023-04-09T05:14:16;6.70;99.90
24902;DHT22;31328;51.402;0.016;2023-04-09T05:16:42;6.70;99.90
24902;DHT22;31328;51.402;0.016;2023-04-09T05:19:09;6.60;99.90
24902;DHT22;31328;51.402;0.016;2023-04-09T05:21:37;6.60;99.90
24902;DHT22;31328;51.402;0.016;2023-04-09T05:24:04;6.60;99.90
24902;DHT22;31328;51.402;0.016;2023-04-09T05:26:33;6.60;99.90
24902;DHT22;31328;51.402;0.016;2023-04-09T05:28:59;6.60;99.90
24902;DHT22;31328;51.402;0.016;2023-04-09T05:31:26;6.60;99.90
24902;DHT22;31328;51.402;0.016;2023-04-09T05:33:59;6.60;99.90
24902;DHT22;31328;51.402;0.016;2023-04-09T05:36:35;6.60;99.90
24902;DHT22;31328;51.402;0.016;2023-04-09T05:39:02;6.60;99.90
24902;DHT22;31328;51.402;0.016;2023-04-09T05:41:29;6.70;99.90
24902;DHT22;31328;51.402;0.016;2023-04-09T05:44:19;6.60;99.90
24902;DHT22;31328;51.402;0.016;2023-04-09T05:46:45;6.60;99.90
24902;DHT22;31328;51.402;0.016;2023-04-09T05:49:15;6.60;99.90
24902;DHT22;31328;51.402;0.016;2023-04-09T05:51:45;6.60;99.90
24902;DHT22;31328;51.402;0.016;2023-04-09T05:54:13;6.60;99.90
24902;DHT22;31328;51.402;0.016;2023-04-09T05:56:42;6.60;99.90
24902;DHT22;31328;51.402;0.016;2023-04-09T05:59:08;6.60;99.90
24902;DHT22;31328;51.402;0.016;2023-04-09T06:01:34;6.50;99.90
24902;DHT22;31328;51.402;0.016;2023-04-09T06:04:03;6.50;99.90
24902;DHT22;31328;51.402;0.016;2023-04-09T06:06:29;6.50;99.90
24902;DHT22;31328;51.402;0.016;2023-04-09T06:08:56;6.50;99.90
24902;DHT22;31328;51.402;0.016;2023-04-09T06:11:22;6.50;99.90
24902;DHT22;31328;51.402;0.016;2023-04-09T06:13:49;6.50;99.90
24902;DHT22;31328;51.402;0.016;2023-04-09T06:16:17;6.50;99.90
24902;DHT22;31328;51.402;0.016;2023-04-09T06:18:43;6.50;99.90
24902;DHT22;31328;51.402;0.016;2023-04-09T06:21:11;6.60;99.90
24902;DHT22;31328;51.402;0.016;2023-04-09T06:23:41;6.60;99.90
24902;DHT22;31328;51.402;0.016;2023-04-09T06:26:08;6.60;99.90
24902;DHT22;31328;51.402;0.016;2023-04-09T06:28:34;6.70;99.90
24902;DHT22;31328;51.402;0.016;2023-04-09T06:31:01;6.70;99.90
24902;DHT22;31328;51.402;0.016;2023-04-09T06:33:27;6.80;99.90
24902;DHT22;31328;51.402;0.016;2023-04-09T06:35:53;6.90;99.90
24902;DHT22;31328;51.402;0.016;2023-04-09T06:38:20;6.90;99.90
24902;DHT22;31328;51.402;0.016;2023-04-09T06:40:46;6.90;99.90
24902;DHT22;31328;51.402;0.016;2023-04-09T06:43:13;7.00;99.90
24902;DHT22;31328;51.402;0.016;2023-04-09T06:45:49;7.00;99.90
24902;DHT22;31328;51.402;0.016;2023-04-09T06:48:16;7.10;99.90
24902;DHT22;31328;51.402;0.016;2023-04-09T06:50:43;7.10;99.90
24902;DHT22;31328;51.402;0.016;2023-04-09T06:53:09;7.20;99.90
24902;DHT22;31328;51.402;0.016;2023-04-09T06:55:36;7.30;99.90
24902;DHT22;31328;51.402;0.016;2023-04-09T06:58:02;7.30;99.90
24902;DHT22;31328;51.402;0.016;2023-04-09T07:00:29;7.40;99.90
24902;DHT22;31328;51.402;0.016;2023-04-09T07:02:55;7.50;99.90
24902;DHT22;31328;51.402;0.016;2023-04-09T07:05:22;7.60;99.90
24902;DHT22;31328;51.402;0.016;2023-04-09T07:07:49;7.60;99.90
24902;DHT22;31328;51.402;0.016;2023-04-09T07:10:15;7.70;99.90
24902;DHT22;31328;51.402;0.016;2023-04-09T07:12:41;7.70;99.90
24902;DHT22;31328;51.402;0.016;2023-04-09T07:15:08;7.70;99.90
24902;DHT22;31328;51.402;0.016;2023-04-09T07:17:34;7.80;99.90
24902;DHT22;31328;51.402;0.016;2023-04-09T07:20:01;7.80;99.90
24902;DHT22;31328;51.402;0.016;2023-04-09T07:22:28;7.80;99.90
24902;DHT22;31328;51.402;0.016;2023-04-09T07:24:55;7.80;99.90
24902;DHT22;31328;51.402;0.016;2023-04-09T07:27:23;7.80;99.90
24902;DHT22;31328;51.402;0.016;2023-04-09T07:29:49;7.80;99.90
24902;DHT22;31328;51.402;0.016;2023-04-09T07:32:16;7.90;99.90
24902;DHT22;31328;51.402;0.016;2023-04-09T07:34:43;8.00;99.90
24902;DHT22;31328;51.402;0.016;2023-04-09T07:37:10;8.10;99.90
24902;DHT22;31328;51.402;0.016;2023-04-09T07:39:37;8.20;99.90
24902;DHT22;31328;51.402;0.016;2023-04-09T07:42:04;8.30;99.90
24902;DHT22;31328;51.402;0.016;2023-04-09T07:44:35;8.50;99.90
24902;DHT22;31328;51.402;0.016;2023-04-09T07:47:05;8.60;99.90
24902;DHT22;31328;51.402;0.016;2023-04-09T07:49:34;8.70;99.90
24902;DHT22;31328;51.402;0.016;2023-04-09T07:52:01;8.90;99.90
24902;DHT22;31328;51.402;0.016;2023-04-09T07:54:27;9.10;99.90
24902;DHT22;31328;51.402;0.016;2023-04-09T07:56:53;9.20;99.90
24902;DHT22;31328;51.402;0.016;2023-04-09T07:59:20;9.40;99.90
24902;DHT22;31328;51.402;0.016;2023-04-09T08:01:46;9.50;99.90
24902;DHT22;31328;51.402;0.016;2023-04-09T08:04:12;9.70;99.90
24902;DHT22;31328;51.402;0.016;2023-04-09T08:06:39;9.80;99.90
24902;DHT22;31328;51.402;0.016;2023-04-09T08:09:06;10.00;99.90
24902;DHT22;31328;51.402;0.016;2023-04-09T08:11:32;10.10;99.90
24902;DHT22;31328;51.402;0.016;2023-04-09T08:13:58;10.30;99.90
24902;DHT22;31328;51.402;0.016;2023-04-09T08:16:28;10.40;99.90
24902;DHT22;31328;51.402;0.016;2023-04-09T08:18:56;10.50;99.90
24902;DHT22;31328;51.402;0.016;2023-04-09T08:21:23;10.60;99.90
24902;DHT22;31328;51.402;0.016;2023-04-09T08:23:52;10.70;99.90
24902;DHT22;31328;51.402;0.016;2023-04-09T08:26:18;10.80;99.90
24902;DHT22;31328;51.402;0.016;2023-04-09T08:28:45;10.90;99.90
24902;DHT22;31328;51.402;0.016;2023-04-09T08:31:11;11.00;99.90
24902;DHT22;31328;51.402;0.016;2023-04-09T08:33:38;11.10;99.90
24902;DHT22;31328;51.402;0.016;2023-04-09T08:36:08;11.10;99.90
24902;DHT22;31328;51.402;0.016;2023-04-09T08:38:34;11.20;99.90
24902;DHT22;31328;51.402;0.016;2023-04-09T08:41:01;11.30;99.90
24902;DHT22;31328;51.402;0.016;2023-04-09T08:43:27;11.40;99.90
24902;DHT22;31328;51.402;0.016;2023-04-09T08:45:55;11.50;99.90
24902;DHT22;31328;51.402;0.016;2023-04-09T08:48:23;11.60;99.90
24902;DHT22;31328;51.402;0.016;2023-04-09T08:50:50;11.70;99.90
24902;DHT22;31328;51.402;0.016;2023-04-09T08:53:17;11.80;99.90
24902;DHT22;31328;51.402;0.016;2023-04-09T08:55:44;11.90;99.90
24902;DHT22;31328;51.402;0.016;2023-04-09T08:58:11;12.00;99.90
24902;DHT22;31328;51.402;0.016;2023-04-09T09:00:37;12.10;99.90
24902;DHT22;31328;51.402;0.016;2023-04-09T09:03:07;12.20;99.90
24902;DHT22;31328;51.402;0.016;2023-04-09T09:05:44;12.30;99.90
24902;DHT22;31328;51.402;0.016;2023-04-09T09:08:12;12.40;99.90
24902;DHT22;31328;51.402;0.016;2023-04-09T09:10:43;12.50;99.90
24902;DHT22;31328;51.402;0.016;2023-04-09T09:13:23;12.60;99.90
24902;DHT22;31328;51.402;0.016;2023-04-09T09:18:38;12.80;99.90
24902;DHT22;31328;51.402;0.016;2023-04-09T09:21:13;12.90;99.90
24902;DHT22;31328;51.402;0.016;2023-04-09T09:23:39;13.00;99.90
24902;DHT22;31328;51.402;0.016;2023-04-09T09:26:16;13.10;99.90
24902;DHT22;31328;51.402;0.016;2023-04-09T09:28:44;13.10;99.90
24902;DHT22;31328;51.402;0.016;2023-04-09T09:31:12;13.20;99.90
24902;DHT22;31328;51.402;0.016;2023-04-09T09:33:39;13.30;99.90
24902;DHT22;31328;51.402;0.016;2023-04-09T09:36:05;13.40;99.90
24902;DHT22;31328;51.402;0.016;2023-04-09T09:38:53;13.50;99.60
24902;DHT22;31328;51.402;0.016;2023-04-09T09:41:21;13.60;99.40
24902;DHT22;31328;51.402;0.016;2023-04-09T09:43:48;13.70;99.20
24902;DHT22;31328;51.402;0.016;2023-04-09T09:46:15;13.90;99.10
24902;DHT22;31328;51.402;0.016;2023-04-09T09:48:42;14.00;98.90
24902;DHT22;31328;51.402;0.016;2023-04-09T09:51:10;14.10;98.60
24902;DHT22;31328;51.402;0.016;2023-04-09T09:53:37;14.20;98.30
24902;DHT22;31328;51.402;0.016;2023-04-09T09:56:05;14.30;98.20
24902;DHT22;31328;51.402;0.016;2023-04-09T10:01:37;14.40;97.60
24902;DHT22;31328;51.402;0.016;2023-04-09T10:04:05;14.40;97.70
24902;DHT22;31328;51.402;0.016;2023-04-09T10:06:32;14.50;97.60
24902;DHT22;31328;51.402;0.016;2023-04-09T10:09:04;14.50;97.60
24902;DHT22;31328;51.402;0.016;2023-04-09T10:11:36;14.50;97.50
24902;DHT22;31328;51.402;0.016;2023-04-09T10:14:03;14.50;97.10
24902;DHT22;31328;51.402;0.016;2023-04-09T10:16:32;14.50;97.00
24902;DHT22;31328;51.402;0.016;2023-04-09T10:19:00;14.60;97.00
24902;DHT22;31328;51.402;0.016;2023-04-09T10:24:36;14.70;96.50
24902;DHT22;31328;51.402;0.016;2023-04-09T10:27:14;14.70;96.30
24902;DHT22;31328;51.402;0.016;2023-04-09T10:29:45;14.80;96.00
24902;DHT22;31328;51.402;0.016;2023-04-09T10:32:19;14.80;95.90
24902;DHT22;31328;51.402;0.016;2023-04-09T10:34:55;14.90;95.70
24902;DHT22;31328;51.402;0.016;2023-04-09T10:37:24;14.90;95.70
24902;DHT22;31328;51.402;0.016;2023-04-09T10:39:51;14.90;95.40
24902;DHT22;31328;51.402;0.016;2023-04-09T10:42:19;14.90;95.20
24902;DHT22;31328;51.402;0.016;2023-04-09T10:45:12;14.90;95.10
24902;DHT22;31328;51.402;0.016;2023-04-09T10:47:40;14.90;95.00
24902;DHT22;31328;51.402;0.016;2023-04-09T10:50:16;14.90;95.20
24902;DHT22;31328;51.402;0.016;2023-04-09T10:52:42;14.90;95.00
24902;DHT22;31328;51.402;0.016;2023-04-09T10:55:33;15.00;95.00
24902;DHT22;31328;51.402;0.016;2023-04-09T10:57:59;15.10;94.60
24902;DHT22;31328;51.402;0.016;2023-04-09T11:00:26;15.20;94.70
24902;DHT22;31328;51.402;0.016;2023-04-09T11:05:33;15.30;94.10
24902;DHT22;31328;51.402;0.016;2023-04-09T11:08:11;15.40;94.10
24902;DHT22;31328;51.402;0.016;2023-04-09T11:10:40;15.50;93.90
24902;DHT22;31328;51.402;0.016;2023-04-09T11:13:10;15.60;93.80
24902;DHT22;31328;51.402;0.016;2023-04-09T11:15:38;15.60;93.40
24902;DHT22;31328;51.402;0.016;2023-04-09T11:18:05;15.60;93.00
24902;DHT22;31328;51.402;0.016;2023-04-09T11:20:39;15.60;92.90
24902;DHT22;31328;51.402;0.016;2023-04-09T11:23:06;15.60;93.00
24902;DHT22;31328;51.402;0.016;2023-04-09T11:25:33;15.60;93.30
24902;DHT22;31328;51.402;0.016;2023-04-09T11:28:02;15.60;93.30
24902;DHT22;31328;51.402;0.016;2023-04-09T11:30:29;15.70;93.40
24902;DHT22;31328;51.402;0.016;2023-04-09T11:32:56;15.80;93.40
24902;DHT22;31328;51.402;0.016;2023-04-09T11:35:22;15.80;93.00
24902;DHT22;31328;51.402;0.016;2023-04-09T11:37:49;15.90;92.70
24902;DHT22;31328;51.402;0.016;2023-04-09T11:40:24;15.90;93.00
24902;DHT22;31328;51.402;0.016;2023-04-09T11:42:52;16.00;92.40
24902;DHT22;31328;51.402;0.016;2023-04-09T11:45:22;16.00;92.40
24902;DHT22;31328;51.402;0.016;2023-04-09T11:47:50;16.00;92.20
24902;DHT22;31328;51.402;0.016;2023-04-09T11:50:17;16.10;92.20
24902;DHT22;31328;51.402;0.016;2023-04-09T11:52:44;16.20;92.00
24902;DHT22;31328;51.402;0.016;2023-04-09T11:55:12;16.20;92.00
24902;DHT22;31328;51.402;0.016;2023-04-09T11:57:47;16.30;91.90
24902;DHT22;31328;51.402;0.016;2023-04-09T12:00:16;16.30;92.00
24902;DHT22;31328;51.402;0.016;2023-04-09T12:02:45;16.30;91.90
24902;DHT22;31328;51.402;0.016;2023-04-09T12:05:20;16.40;91.90
24902;DHT22;31328;51.402;0.016;2023-04-09T12:07:47;16.30;91.70
24902;DHT22;31328;51.402;0.016;2023-04-09T12:10:13;16.30;91.90
24902;DHT22;31328;51.402;0.016;2023-04-09T12:17:47;16.40;91.20
24902;DHT22;31328;51.402;0.016;2023-04-09T12:20:24;16.50;91.30
24902;DHT22;31328;51.402;0.016;2023-04-09T12:22:51;16.50;91.10
24902;DHT22;31328;51.402;0.016;2023-04-09T12:25:17;16.50;91.20
24902;DHT22;31328;51.402;0.016;2023-04-09T12:27:43;16.50;91.30
24902;DHT22;31328;51.402;0.016;2023-04-09T12:30:10;16.50;91.10
24902;DHT22;31328;51.402;0.016;2023-04-09T12:32:37;16.60;90.70
24902;DHT22;31328;51.402;0.016;2023-04-09T12:35:04;16.60;90.40
24902;DHT22;31328;51.402;0.016;2023-04-09T12:37:30;16.70;90.30
24902;DHT22;31328;51.402;0.016;2023-04-09T12:39:57;16.70;90.10
24902;DHT22;31328;51.402;0.016;2023-04-09T12:42:23;16.80;89.30
24902;DHT22;31328;51.402;0.016;2023-04-09T12:44:49;16.80;88.80
24902;DHT22;31328;51.402;0.016;2023-04-09T12:47:15;16.90;89.40
24902;DHT22;31328;51.402;0.016;2023-04-09T12:49:43;16.90;89.40
24902;DHT22;31328;51.402;0.016;2023-04-09T12:52:12;16.90;88.90
24902;DHT22;31328;51.402;0.016;2023-04-09T12:54:38;16.90;88.10
24902;DHT22;31328;51.402;0.016;2023-04-09T12:57:05;16.90;87.20
24902;DHT22;31328;51.402;0.016;2023-04-09T12:59:31;16.90;86.80
24902;DHT22;31328;51.402;0.016;2023-04-09T13:01:58;16.90;86.70
24902;DHT22;31328;51.402;0.016;2023-04-09T13:04:24;16.90;86.50
24902;DHT22;31328;51.402;0.016;2023-04-09T13:06:50;16.90;86.60
24902;DHT22;31328;51.402;0.016;2023-04-09T13:09:17;16.90;86.40
24902;DHT22;31328;51.402;0.016;2023-04-09T13:11:43;17.00;86.50
24902;DHT22;31328;51.402;0.016;2023-04-09T13:14:09;17.00;86.10
24902;DHT22;31328;51.402;0.016;2023-04-09T13:16:39;17.00;85.60
24902;DHT22;31328;51.402;0.016;2023-04-09T13:19:06;17.10;85.60
24902;DHT22;31328;51.402;0.016;2023-04-09T13:21:33;17.10;85.50
24902;DHT22;31328;51.402;0.016;2023-04-09T13:23:59;17.10;85.00
24902;DHT22;31328;51.402;0.016;2023-04-09T13:26:26;17.20;84.30
24902;DHT22;31328;51.402;0.016;2023-04-09T13:28:52;17.20;84.00
24902;DHT22;31328;51.402;0.016;2023-04-09T13:31:18;17.20;83.90
24902;DHT22;31328;51.402;0.016;2023-04-09T13:33:45;17.20;84.30
24902;DHT22;31328;51.402;0.016;2023-04-09T13:36:11;17.30;84.50
24902;DHT22;31328;51.402;0.016;2023-04-09T13:38:37;17.30;84.00
24902;DHT22;31328;51.402;0.016;2023-04-09T13:41:04;17.30;82.90
24902;DHT22;31328;51.402;0.016;2023-04-09T13:43:31;17.30;82.00
24902;DHT22;31328;51.402;0.016;2023-04-09T13:45:57;17.30;81.80
24902;DHT22;31328;51.402;0.016;2023-04-09T13:48:23;17.30;81.50
24902;DHT22;31328;51.402;0.016;2023-04-09T13:50:50;17.30;81.30
24902;DHT22;31328;51.402;0.016;2023-04-09T13:53:16;17.30;81.10
24902;DHT22;31328;51.402;0.016;2023-04-09T13:55:42;17.40;81.00
24902;DHT22;31328;51.402;0.016;2023-04-09T13:58:09;17.40;80.40
24902;DHT22;31328;51.402;0.016;2023-04-09T14:00:35;17.50;79.90
24902;DHT22;31328;51.402;0.016;2023-04-09T14:03:02;17.60;79.30
24902;DHT22;31328;51.402;0.016;2023-04-09T14:05:29;17.60;78.40
24902;DHT22;31328;51.402;0.016;2023-04-09T14:07:57;17.60;78.30
24902;DHT22;31328;51.402;0.016;2023-04-09T14:10:24;17.60;78.30
24902;DHT22;31328;51.402;0.016;2023-04-09T14:12:50;17.60;77.40
24902;DHT22;31328;51.402;0.016;2023-04-09T14:15:17;17.60;76.90
24902;DHT22;31328;51.402;0.016;2023-04-09T14:17:43;17.60;76.10
24902;DHT22;31328;51.402;0.016;2023-04-09T14:20:09;17.60;75.80
24902;DHT22;31328;51.402;0.016;2023-04-09T14:22:36;17.50;76.00
24902;DHT22;31328;51.402;0.016;2023-04-09T14:25:02;17.50;75.10
24902;DHT22;31328;51.402;0.016;2023-04-09T14:27:28;17.50;74.90
24902;DHT22;31328;51.402;0.016;2023-04-09T14:29:55;17.50;74.30
24902;DHT22;31328;51.402;0.016;2023-04-09T14:32:21;17.50;74.00
24902;DHT22;31328;51.402;0.016;2023-04-09T14:34:48;17.50;73.70
24902;DHT22;31328;51.402;0.016;2023-04-09T14:37:14;17.50;72.80
24902;DHT22;31328;51.402;0.016;2023-04-09T14:39:40;17.60;72.60
24902;DHT22;31328;51.402;0.016;2023-04-09T14:42:06;17.70;72.50
24902;DHT22;31328;51.402;0.016;2023-04-09T14:44:33;17.70;71.90
24902;DHT22;31328;51.402;0.016;2023-04-09T14:46:59;17.70;71.80
24902;DHT22;31328;51.402;0.016;2023-04-09T14:49:25;17.70;71.20
24902;DHT22;31328;51.402;0.016;2023-04-09T14:51:52;17.60;71.30
24902;DHT22;31328;51.402;0.016;2023-04-09T14:54:18;17.60;70.90
24902;DHT22;31328;51.402;0.016;2023-04-09T14:56:44;17.60;71.30
24902;DHT22;31328;51.402;0.016;2023-04-09T14:59:10;17.60;70.40
24902;DHT22;31328;51.402;0.016;2023-04-09T15:01:37;17.50;69.90
24902;DHT22;31328;51.402;0.016;2023-04-09T15:04:03;17.50;69.60
24902;DHT22;31328;51.402;0.016;2023-04-09T15:06:29;17.50;69.20
24902;DHT22;31328;51.402;0.016;2023-04-09T15:08:57;17.40;69.20
24902;DHT22;31328;51.402;0.016;2023-04-09T15:11:23;17.40;68.70
24902;DHT22;31328;51.402;0.016;2023-04-09T15:13:50;17.40;67.80
24902;DHT22;31328;51.402;0.016;2023-04-09T15:16:24;17.40;67.20
24902;DHT22;31328;51.402;0.016;2023-04-09T15:18:50;17.50;66.50
24902;DHT22;31328;51.402;0.016;2023-04-09T15:21:17;17.50;66.00
24902;DHT22;31328;51.402;0.016;2023-04-09T15:23:43;17.50;65.70
24902;DHT22;31328;51.402;0.016;2023-04-09T15:26:10;17.50;65.90
24902;DHT22;31328;51.402;0.016;2023-04-09T15:28:36;17.50;65.50
24902;DHT22;31328;51.402;0.016;2023-04-09T15:31:03;17.50;65.10
24902;DHT22;31328;51.402;0.016;2023-04-09T15:33:29;17.60;65.30
24902;DHT22;31328;51.402;0.016;2023-04-09T15:35:57;17.50;65.00
24902;DHT22;31328;51.402;0.016;2023-04-09T15:38:24;17.50;64.90
24902;DHT22;31328;51.402;0.016;2023-04-09T15:40:55;17.40;64.80
24902;DHT22;31328;51.402;0.016;2023-04-09T15:43:22;17.30;64.50
24902;DHT22;31328;51.402;0.016;2023-04-09T15:45:49;17.30;64.90
24902;DHT22;31328;51.402;0.016;2023-04-09T15:48:16;17.20;65.30
24902;DHT22;31328;51.402;0.016;2023-04-09T15:50:44;17.10;65.40
24902;DHT22;31328;51.402;0.016;2023-04-09T15:53:12;17.00;66.30
24902;DHT22;31328;51.402;0.016;2023-04-09T15:55:40;16.90;67.20
24902;DHT22;31328;51.402;0.016;2023-04-09T15:58:06;16.80;67.60
24902;DHT22;31328;51.402;0.016;2023-04-09T16:00:33;16.70;68.20
24902;DHT22;31328;51.402;0.016;2023-04-09T16:02:59;16.70;68.90
24902;DHT22;31328;51.402;0.016;2023-04-09T16:05:25;16.60;69.30
24902;DHT22;31328;51.402;0.016;2023-04-09T16:07:52;16.60;69.80
24902;DHT22;31328;51.402;0.016;2023-04-09T16:10:18;16.50;70.40